createdAt,value
2022-08-26T00:01:07.282Z,22.88
2022-08-26T00:05:00.113Z,22.87
2022-08-26T00:08:52.616Z,22.72
2022-08-26T00:12:45.382Z,22.60
2022-08-26T00:16:41.080Z,22.61
2022-08-26T00:20:40.826Z,22.41
2022-08-26T00:24:35.340Z,22.30
2022-08-26T00:28:27.931Z,22.57
2022-08-26T00:32:20.469Z,22.37
2022-08-26T00:36:20.098Z,22.49
2022-08-26T00:40:18.544Z,22.26
2022-08-26T00:44:11.554Z,22.26
2022-08-26T00:48:06.245Z,22.19
2022-08-26T00:52:03.356Z,22.19
2022-08-26T00:55:58.991Z,22.24
2022-08-26T01:00:01.219Z,22.36
2022-08-26T01:03:55.733Z,22.67
2022-08-26T01:07:48.559Z,22.57
2022-08-26T01:11:42.398Z,22.40
2022-08-26T01:15:41.850Z,22.46
2022-08-26T01:19:43.651Z,22.53
2022-08-26T01:23:41.156Z,22.40
2022-08-26T01:27:37.650Z,22.30
2022-08-26T01:31:38.669Z,22.36
2022-08-26T01:35:31.831Z,22.32
2022-08-26T01:39:24.965Z,22.05
2022-08-26T01:43:22.441Z,21.81
2022-08-26T01:47:16.364Z,22.03
2022-08-26T01:51:12.155Z,21.88
2022-08-26T01:55:06.166Z,21.85
2022-08-26T01:59:02.857Z,21.71
2022-08-26T02:03:16.517Z,21.79
2022-08-26T02:07:10.590Z,21.77
2022-08-26T02:11:04.247Z,21.84
2022-08-26T02:15:00.043Z,21.77
2022-08-26T02:18:53.938Z,21.75
2022-08-26T02:22:47.629Z,21.73
2022-08-26T02:26:40.898Z,21.77
2022-08-26T02:30:34.332Z,21.54
2022-08-26T02:34:32.250Z,21.54
2022-08-26T02:38:24.785Z,21.44
2022-08-26T02:42:17.290Z,21.53
2022-08-26T02:46:09.802Z,21.64
2022-08-26T02:50:05.439Z,21.62
2022-08-26T02:53:57.885Z,21.65
2022-08-26T02:57:50.506Z,21.69
2022-08-26T03:01:45.435Z,21.73
2022-08-26T03:05:38.083Z,21.77
2022-08-26T03:09:33.107Z,21.74
2022-08-26T03:13:25.652Z,21.74
2022-08-26T03:17:18.998Z,21.79
2022-08-26T03:21:14.972Z,21.75
2022-08-26T03:25:10.248Z,21.64
2022-08-26T03:29:21.797Z,21.68
2022-08-26T03:33:14.935Z,21.64
2022-08-26T03:37:08.003Z,21.64
2022-08-26T03:41:01.144Z,21.50
2022-08-26T03:44:53.991Z,21.47
2022-08-26T03:48:47.052Z,21.29
2022-08-26T03:52:43.654Z,21.14
2022-08-26T03:56:36.807Z,21.02
2022-08-26T04:00:29.780Z,21.14
2022-08-26T04:04:22.817Z,21.29
2022-08-26T04:08:17.893Z,21.27
2022-08-26T04:12:11.027Z,21.23
2022-08-26T04:16:03.932Z,21.40
2022-08-26T04:19:56.713Z,21.44
2022-08-26T04:23:50.057Z,21.44
2022-08-26T04:27:42.720Z,21.34
2022-08-26T04:31:37.010Z,21.47
2022-08-26T04:35:29.823Z,21.78
2022-08-26T04:39:22.550Z,22.05
2022-08-26T04:43:15.550Z,22.12
2022-08-26T04:47:08.084Z,22.32
2022-08-26T04:51:01.984Z,22.36
2022-08-26T04:54:54.463Z,22.64
2022-08-26T04:58:47.625Z,22.79
2022-08-26T05:02:41.261Z,22.75
2022-08-26T05:06:35.484Z,23.15
2022-08-26T05:10:29.599Z,23.22
2022-08-26T05:14:23.370Z,23.78
2022-08-26T05:18:18.288Z,24.83
2022-08-26T05:22:13.355Z,25.62
2022-08-26T05:34:55.688Z,25.96
2022-08-26T06:05:42.107Z,27.68
2022-08-26T06:09:38.580Z,27.13
2022-08-26T06:13:31.970Z,27.51
2022-08-26T06:17:24.644Z,26.83
2022-08-26T06:21:26.846Z,27.10
2022-08-26T06:25:37.804Z,27.99
2022-08-26T06:29:33.650Z,27.90
2022-08-26T06:33:28.850Z,28.20
2022-08-26T06:37:21.580Z,28.43
2022-08-26T06:41:14.952Z,28.43
2022-08-26T06:45:08.533Z,28.85
2022-08-26T06:49:01.018Z,29.46
2022-08-26T06:52:54.482Z,29.37
2022-08-26T06:56:49.690Z,29.12
2022-08-26T07:00:42.202Z,29.51
2022-08-26T07:04:40.127Z,30.19
2022-08-26T07:08:32.759Z,30.43
2022-08-26T07:12:26.696Z,30.71
2022-08-26T07:16:19.620Z,28.61
2022-08-26T07:20:13.288Z,29.20
2022-08-26T07:24:06.139Z,29.82
2022-08-26T07:27:58.731Z,30.16
2022-08-26T07:31:51.182Z,29.60
2022-08-26T07:35:44.878Z,30.01
2022-08-26T07:39:37.836Z,29.75
2022-08-26T07:43:34.845Z,30.05
2022-08-26T07:47:27.343Z,30.40
2022-08-26T07:51:21.967Z,30.55
2022-08-26T07:55:15.036Z,30.16
2022-08-26T07:59:13.657Z,29.30
2022-08-26T08:03:07.472Z,29.64
2022-08-26T08:07:00.280Z,29.94
2022-08-26T08:10:53.005Z,29.49
2022-08-26T08:14:47.097Z,30.22
2022-08-26T08:18:40.972Z,30.09
2022-08-26T08:22:38.355Z,29.98
2022-08-26T08:26:30.859Z,29.71
2022-08-26T08:30:24.502Z,29.97
2022-08-26T08:34:17.073Z,30.04
2022-08-26T08:38:10.766Z,30.06
2022-08-26T08:42:40.089Z,30.18
2022-08-26T08:46:32.978Z,30.25
2022-08-26T08:50:42.566Z,30.40
2022-08-26T08:54:35.321Z,30.44
2022-08-26T08:58:42.425Z,30.70
2022-08-26T09:02:53.911Z,30.61
2022-08-26T09:06:48.725Z,30.66
2022-08-26T09:10:49.976Z,30.63
2022-08-26T09:14:45.762Z,30.70
2022-08-26T09:18:47.302Z,30.87
2022-08-26T09:22:40.497Z,30.70
2022-08-26T09:26:39.912Z,30.76
2022-08-26T09:30:35.532Z,30.53
2022-08-26T09:34:28.336Z,30.64
2022-08-26T09:38:27.852Z,30.52
2022-08-26T09:42:25.574Z,30.56
2022-08-26T09:46:27.965Z,30.57
2022-08-26T09:50:29.116Z,30.70
2022-08-26T09:54:30.209Z,30.60
2022-08-26T09:58:38.087Z,30.59
2022-08-26T10:02:33.738Z,30.81
2022-08-26T10:06:29.943Z,30.91
2022-08-26T10:10:27.410Z,30.61
2022-08-26T10:14:29.368Z,30.71
2022-08-26T10:18:28.782Z,30.37
2022-08-26T10:22:38.797Z,30.52
2022-08-26T10:26:48.649Z,30.46
2022-08-26T10:30:47.025Z,30.63
2022-08-26T10:34:39.779Z,30.57
2022-08-26T10:38:38.622Z,30.76
2022-08-26T10:42:50.098Z,30.85
2022-08-26T10:46:54.470Z,30.95
2022-08-26T10:50:47.907Z,30.74
2022-08-26T10:55:12.842Z,30.76
2022-08-26T10:59:19.235Z,30.94
2022-08-26T11:03:22.596Z,30.83
2022-08-26T11:07:41.915Z,31.10
2022-08-26T11:11:40.279Z,31.18
2022-08-26T11:15:32.682Z,31.31
2022-08-26T11:20:01.989Z,31.38
2022-08-26T11:23:54.751Z,31.35
2022-08-26T11:27:53.089Z,31.47
2022-08-26T11:31:54.743Z,31.43
2022-08-26T11:35:49.259Z,31.46
2022-08-26T11:39:56.899Z,31.49
2022-08-26T11:43:52.562Z,31.39
2022-08-26T11:47:47.481Z,31.47
2022-08-26T11:51:45.234Z,31.49
2022-08-26T11:55:43.600Z,31.50
2022-08-26T11:59:39.083Z,31.60
2022-08-26T12:03:44.637Z,31.65
2022-08-26T12:07:37.608Z,31.72
2022-08-26T12:11:36.852Z,31.65
2022-08-26T12:15:36.127Z,31.69
2022-08-26T12:19:44.796Z,31.73
2022-08-26T12:24:07.126Z,31.77
2022-08-26T12:28:06.280Z,31.84
2022-08-26T12:32:18.534Z,31.90
2022-08-26T12:36:12.080Z,32.00
2022-08-26T12:40:31.674Z,31.97
2022-08-26T12:44:53.686Z,31.76
2022-08-26T12:48:49.191Z,31.80
2022-08-26T12:53:03.884Z,31.90
2022-08-26T12:56:56.683Z,31.77
2022-08-26T13:00:52.614Z,31.80
2022-08-26T13:04:46.358Z,31.93
2022-08-26T13:08:46.040Z,31.90
2022-08-26T13:12:38.675Z,31.77
2022-08-26T13:16:31.887Z,31.87
2022-08-26T13:20:24.650Z,31.81
2022-08-26T13:24:31.759Z,31.74
2022-08-26T13:28:24.554Z,31.76
2022-08-26T13:32:18.262Z,31.77
2022-08-26T13:36:13.305Z,31.86
2022-08-26T13:40:07.936Z,31.78
2022-08-26T13:44:00.440Z,31.84
2022-08-26T13:47:53.413Z,31.86
2022-08-26T13:51:45.979Z,31.93
2022-08-26T13:55:38.542Z,31.97
2022-08-26T13:59:31.281Z,31.86
2022-08-26T14:03:24.897Z,31.86
2022-08-26T14:07:17.436Z,32.03
2022-08-26T14:11:11.020Z,31.98
2022-08-26T14:15:03.753Z,31.93
2022-08-26T14:18:56.300Z,32.03
2022-08-26T14:23:12.583Z,31.98
2022-08-26T14:27:01.485Z,32.07
2022-08-26T14:30:58.159Z,31.91
2022-08-26T14:34:51.222Z,31.90
2022-08-26T14:38:48.295Z,31.87
2022-08-26T14:42:49.518Z,31.94
2022-08-26T14:46:47.918Z,31.83
2022-08-26T14:50:40.604Z,31.80
2022-08-26T14:54:43.735Z,31.80
2022-08-26T14:58:47.717Z,31.81
2022-08-26T15:02:40.414Z,31.84
2022-08-26T15:06:34.663Z,31.87
2022-08-26T15:10:27.124Z,31.70
2022-08-26T15:14:20.491Z,31.77
2022-08-26T15:18:13.348Z,31.72
2022-08-26T15:22:05.817Z,31.58
2022-08-26T15:25:58.250Z,31.62
2022-08-26T15:29:51.869Z,31.53
2022-08-26T15:33:44.486Z,31.58
2022-08-26T15:37:37.088Z,31.45
2022-08-26T15:41:29.970Z,31.39
2022-08-26T15:45:27.793Z,31.31
2022-08-26T15:49:20.258Z,31.33
2022-08-26T15:53:13.523Z,31.21
2022-08-26T15:57:09.454Z,31.21
2022-08-26T16:01:08.863Z,31.08
2022-08-26T16:05:01.873Z,31.08
2022-08-26T16:08:56.155Z,30.81
2022-08-26T16:12:48.558Z,30.80
2022-08-26T16:16:41.236Z,30.84
2022-08-26T16:20:36.356Z,30.71
2022-08-26T16:24:30.631Z,30.60
2022-08-26T16:28:26.151Z,30.57
2022-08-26T16:32:18.931Z,30.61
2022-08-26T16:36:12.201Z,30.50
2022-08-26T16:40:06.595Z,30.47
2022-08-26T16:43:59.488Z,30.32
2022-08-26T16:47:52.860Z,30.33
2022-08-26T16:51:45.391Z,30.20
2022-08-26T16:55:38.164Z,30.22
2022-08-26T16:59:32.547Z,30.13
2022-08-26T17:03:25.156Z,29.85
2022-08-26T17:07:17.647Z,29.81
2022-08-26T17:11:10.636Z,29.70
2022-08-26T17:15:06.101Z,29.61
2022-08-26T17:18:59.869Z,29.60
2022-08-26T17:22:54.667Z,29.22
2022-08-26T17:26:47.851Z,29.26
2022-08-26T17:30:42.823Z,29.13
2022-08-26T17:34:35.601Z,28.95
2022-08-26T17:38:29.292Z,28.76
2022-08-26T17:42:21.752Z,28.79
2022-08-26T17:46:24.725Z,28.53
2022-08-26T17:50:18.543Z,28.53
2022-08-26T17:54:11.110Z,28.51
2022-08-26T17:58:08.227Z,28.55
2022-08-26T18:02:02.509Z,28.36
2022-08-26T18:05:55.230Z,28.34
2022-08-26T18:09:47.716Z,28.23
2022-08-26T18:13:47.389Z,28.09
2022-08-26T18:17:40.545Z,27.93
2022-08-26T18:21:33.287Z,27.77
2022-08-26T18:25:26.320Z,27.71
2022-08-26T18:29:19.995Z,27.40
2022-08-26T18:33:12.848Z,27.41
2022-08-26T18:37:20.717Z,27.29
2022-08-26T18:41:13.229Z,27.30
2022-08-26T18:45:07.380Z,27.26
2022-08-26T18:48:59.802Z,27.24
2022-08-26T18:52:52.383Z,27.14
2022-08-26T18:56:45.738Z,27.06
2022-08-26T19:00:38.441Z,27.06
2022-08-26T19:04:31.162Z,27.04
2022-08-26T20:02:54.960Z,25.07
2022-08-26T20:06:51.801Z,24.91
2022-08-26T20:15:11.828Z,24.49
2022-08-26T20:19:23.507Z,24.35
2022-08-26T20:23:17.367Z,24.33
2022-08-26T20:27:10.250Z,24.29
2022-08-26T20:31:03.862Z,24.35
2022-08-26T20:34:56.696Z,24.33
2022-08-26T20:38:50.654Z,24.26
2022-08-26T20:42:43.391Z,24.25
2022-08-26T20:46:36.682Z,24.32
2022-08-26T20:50:29.489Z,24.49
2022-08-26T20:54:28.196Z,24.56
2022-08-26T20:58:23.851Z,24.51
2022-08-26T21:02:19.010Z,24.49
2022-08-26T21:06:11.653Z,24.56
2022-08-26T21:10:04.412Z,24.76
2022-08-26T21:14:06.912Z,24.77
2022-08-26T21:18:10.060Z,24.52
2022-08-26T21:22:02.706Z,24.81
2022-08-26T21:25:55.946Z,24.69
2022-08-26T21:29:49.220Z,24.35
2022-08-26T21:33:45.025Z,24.33
2022-08-26T21:37:37.721Z,23.94
2022-08-26T21:41:31.190Z,24.09
2022-08-26T21:45:23.835Z,24.32
2022-08-26T21:49:16.903Z,24.12
2022-08-26T21:53:10.410Z,23.97
2022-08-26T21:57:02.984Z,23.96
2022-08-26T22:00:55.639Z,23.84
2022-08-26T22:04:49.259Z,23.97
2022-08-26T22:08:41.911Z,24.18
2022-08-26T22:12:34.618Z,24.25
2022-08-26T22:16:28.817Z,24.09
2022-08-26T22:20:21.605Z,24.21
2022-08-26T22:24:14.159Z,24.32
2022-08-26T22:28:07.466Z,24.49
2022-08-26T22:32:01.089Z,24.49
2022-08-26T22:35:54.131Z,24.59
2022-08-26T22:39:46.743Z,24.25
2022-08-26T22:43:39.759Z,24.09
2022-08-26T22:47:33.578Z,23.88
2022-08-26T22:51:28.308Z,24.09
2022-08-26T22:55:21.009Z,23.85
2022-08-26T22:59:13.972Z,23.63
2022-08-26T23:03:06.575Z,23.38
2022-08-26T23:06:59.158Z,23.26
2022-08-26T23:10:52.479Z,23.09
2022-08-26T23:14:45.010Z,22.98
2022-08-26T23:18:37.623Z,22.96
2022-08-26T23:22:31.511Z,22.94
2022-08-26T23:26:27.137Z,22.94
2022-08-26T23:30:23.489Z,23.05
2022-08-26T23:34:37.429Z,23.18
2022-08-26T23:38:31.482Z,23.25
2022-08-26T23:42:24.566Z,23.47
2022-08-26T23:46:20.928Z,23.56
2022-08-26T23:50:14.565Z,23.40
2022-08-26T23:54:07.358Z,23.25
2022-08-26T23:58:01.040Z,23.20
